sensor_id;sensor_type;location;lat;lon;timestamp;pressure;altitude;pressure_sealevel;temperature;humidity
8703;BME280;9002;42.708;23.186;2024-02-14T00:11:39;94719.97;;;6.09;65.98
8703;BME280;9002;42.708;23.186;2024-02-14T00:14:07;94725.28;;;5.95;66.35
8703;BME280;9002;42.708;23.186;2024-02-14T00:16:34;94715.34;;;5.99;66.79
8703;BME280;9002;42.708;23.186;2024-02-14T00:19:01;94722.06;;;6.00;66.84
8703;BME280;9002;42.708;23.186;2024-02-14T00:21:29;94740.78;;;6.07;67.15
8703;BME280;9002;42.708;23.186;2024-02-14T00:23:57;94733.91;;;6.01;67.06
8703;BME280;9002;42.708;23.186;2024-02-14T00:26:24;94735.28;;;6.04;67.33
8703;BME280;9002;42.708;23.186;2024-02-14T00:28:53;94736.63;;;6.06;67.38
8703;BME280;9002;42.708;23.186;2024-02-14T00:31:20;94738.50;;;5.99;66.53
8703;BME280;9002;42.708;23.186;2024-02-14T00:33:47;94735.69;;;6.01;66.58
8703;BME280;9002;42.708;23.186;2024-02-14T00:36:14;94737.78;;;5.92;67.24
8703;BME280;9002;42.708;23.186;2024-02-14T00:38:41;94731.69;;;5.86;66.67
8703;BME280;9002;42.708;23.186;2024-02-14T00:41:10;94737.72;;;5.98;66.41
8703;BME280;9002;42.708;23.186;2024-02-14T01:09:35;94746.56;;;6.03;66.12
8703;BME280;9002;42.708;23.186;2024-02-14T01:12:03;94677.47;;;5.58;66.68
8703;BME280;9002;42.708;23.186;2024-02-14T01:14:30;94743.34;;;6.07;66.82
8703;BME280;9002;42.708;23.186;2024-02-14T01:16:57;94744.34;;;6.06;65.82
8703;BME280;9002;42.708;23.186;2024-02-14T01:19:24;94742.28;;;6.15;66.39
8703;BME280;9002;42.708;23.186;2024-02-14T01:21:54;94744.13;;;6.08;65.56
8703;BME280;9002;42.708;23.186;2024-02-14T01:24:22;94731.72;;;6.05;65.47
8703;BME280;9002;42.708;23.186;2024-02-14T01:26:53;94746.91;;;6.06;65.53
8703;BME280;9002;42.708;23.186;2024-02-14T01:34:32;94697.63;;;5.73;66.22
8703;BME280;9002;42.708;23.186;2024-02-14T01:36:59;94740.84;;;6.01;66.22
8703;BME280;9002;42.708;23.186;2024-02-14T01:39:46;94737.06;;;6.03;66.01
8703;BME280;9002;42.708;23.186;2024-02-14T01:46:09;94738.66;;;6.04;66.40
8703;BME280;9002;42.708;23.186;2024-02-14T01:48:40;94740.84;;;6.01;65.82
8703;BME280;9002;42.708;23.186;2024-02-14T01:51:09;94710.84;;;5.76;65.58
8703;BME280;9002;42.708;23.186;2024-02-14T01:53:42;94746.78;;;6.01;65.32
8703;BME280;9002;42.708;23.186;2024-02-14T01:56:09;94691.59;;;5.67;66.35
8703;BME280;9002;42.708;23.186;2024-02-14T01:59:08;94670.38;;;5.53;65.97
8703;BME280;9002;42.708;23.186;2024-02-14T02:04:33;94680.66;;;5.53;67.33
8703;BME280;9002;42.708;23.186;2024-02-14T02:17:21;94750.53;;;5.80;68.50
8703;BME280;9002;42.708;23.186;2024-02-14T02:19:49;94749.06;;;5.91;67.28
8703;BME280;9002;42.708;23.186;2024-02-14T02:22:16;94749.44;;;5.94;66.50
8703;BME280;9002;42.708;23.186;2024-02-14T02:24:44;94764.38;;;5.79;66.15
8703;BME280;9002;42.708;23.186;2024-02-14T02:27:13;94759.88;;;5.75;66.18
8703;BME280;9002;42.708;23.186;2024-02-14T02:29:44;94717.47;;;5.47;65.40
8703;BME280;9002;42.708;23.186;2024-02-14T02:37:22;94709.75;;;5.47;66.14
8703;BME280;9002;42.708;23.186;2024-02-14T02:46:33;94779.75;;;5.86;65.04
8703;BME280;9002;42.708;23.186;2024-02-14T02:49:00;94756.25;;;5.82;65.68
8703;BME280;9002;42.708;23.186;2024-02-14T02:51:27;94748.44;;;5.52;65.47
8703;BME280;9002;42.708;23.186;2024-02-14T02:53:55;94763.66;;;5.72;66.02
8703;BME280;9002;42.708;23.186;2024-02-14T02:56:23;94755.88;;;5.60;65.28
8703;BME280;9002;42.708;23.186;2024-02-14T02:58:53;94786.94;;;5.77;65.88
8703;BME280;9002;42.708;23.186;2024-02-14T03:01:20;94793.09;;;5.76;65.01
8703;BME280;9002;42.708;23.186;2024-02-14T03:03:50;94799.81;;;5.77;65.28
8703;BME280;9002;42.708;23.186;2024-02-14T03:06:17;94793.50;;;5.73;65.73
8703;BME280;9002;42.708;23.186;2024-02-14T03:08:45;94789.16;;;5.74;65.01
8703;BME280;9002;42.708;23.186;2024-02-14T03:11:15;94783.72;;;5.82;65.20
8703;BME280;9002;42.708;23.186;2024-02-14T03:13:42;94783.59;;;5.77;64.67
8703;BME280;9002;42.708;23.186;2024-02-14T03:16:09;94786.09;;;5.83;65.16
8703;BME280;9002;42.708;23.186;2024-02-14T03:18:36;94798.88;;;5.90;64.35
8703;BME280;9002;42.708;23.186;2024-02-14T03:21:05;94799.31;;;5.87;64.12
8703;BME280;9002;42.708;23.186;2024-02-14T03:23:32;94801.44;;;5.90;64.49
8703;BME280;9002;42.708;23.186;2024-02-14T03:25:59;94816.28;;;5.94;64.59
8703;BME280;9002;42.708;23.186;2024-02-14T03:28:26;94814.50;;;5.88;65.34
8703;BME280;9002;42.708;23.186;2024-02-14T03:30:53;94819.25;;;5.91;65.35
8703;BME280;9002;42.708;23.186;2024-02-14T03:33:22;94829.94;;;5.88;64.95
8703;BME280;9002;42.708;23.186;2024-02-14T03:35:50;94830.44;;;5.79;63.83
8703;BME280;9002;42.708;23.186;2024-02-14T03:38:26;94821.56;;;5.75;64.61
8703;BME280;9002;42.708;23.186;2024-02-14T03:40:53;94838.88;;;5.86;64.24
8703;BME280;9002;42.708;23.186;2024-02-14T03:43:20;94839.66;;;5.86;63.42
8703;BME280;9002;42.708;23.186;2024-02-14T03:45:49;94831.69;;;5.69;64.91
8703;BME280;9002;42.708;23.186;2024-02-14T03:48:17;94847.06;;;5.76;63.70
8703;BME280;9002;42.708;23.186;2024-02-14T03:50:44;94856.03;;;5.67;64.92
8703;BME280;9002;42.708;23.186;2024-02-14T03:53:11;94858.41;;;5.68;64.85
8703;BME280;9002;42.708;23.186;2024-02-14T03:55:41;94853.22;;;5.75;64.29
8703;BME280;9002;42.708;23.186;2024-02-14T03:58:08;94837.63;;;5.70;64.64
8703;BME280;9002;42.708;23.186;2024-02-14T04:00:35;94847.34;;;5.68;64.04
8703;BME280;9002;42.708;23.186;2024-02-14T04:03:02;94842.47;;;5.60;64.43
8703;BME280;9002;42.708;23.186;2024-02-14T04:05:29;94817.16;;;5.57;64.66
8703;BME280;9002;42.708;23.186;2024-02-14T04:07:57;94843.72;;;5.76;64.32
8703;BME280;9002;42.708;23.186;2024-02-14T04:10:24;94848.84;;;5.76;64.71
8703;BME280;9002;42.708;23.186;2024-02-14T04:12:52;94854.44;;;5.66;63.81
8703;BME280;9002;42.708;23.186;2024-02-14T04:15:19;94867.25;;;5.73;64.73
8703;BME280;9002;42.708;23.186;2024-02-14T04:17:46;94854.25;;;5.67;65.07
8703;BME280;9002;42.708;23.186;2024-02-14T04:20:13;94849.91;;;5.68;63.95
8703;BME280;9002;42.708;23.186;2024-02-14T04:22:40;94864.31;;;5.69;64.10
8703;BME280;9002;42.708;23.186;2024-02-14T04:25:09;94864.47;;;5.74;64.37
8703;BME280;9002;42.708;23.186;2024-02-14T04:27:35;94854.38;;;5.73;63.68
8703;BME280;9002;42.708;23.186;2024-02-14T04:30:06;94864.88;;;5.71;64.91
8703;BME280;9002;42.708;23.186;2024-02-14T04:32:33;94869.47;;;5.69;64.61
8703;BME280;9002;42.708;23.186;2024-02-14T04:34:59;94871.47;;;5.67;64.66
8703;BME280;9002;42.708;23.186;2024-02-14T04:37:26;94870.66;;;5.66;65.29
8703;BME280;9002;42.708;23.186;2024-02-14T04:39:55;94874.16;;;5.72;65.18
8703;BME280;9002;42.708;23.186;2024-02-14T04:42:22;94878.03;;;5.81;64.07
8703;BME280;9002;42.708;23.186;2024-02-14T04:44:49;94855.78;;;5.50;63.62
8703;BME280;9002;42.708;23.186;2024-02-14T04:47:17;94870.28;;;5.63;64.55
8703;BME280;9002;42.708;23.186;2024-02-14T04:49:44;94885.66;;;5.69;64.73
8703;BME280;9002;42.708;23.186;2024-02-14T04:52:11;94890.41;;;5.66;64.75
8703;BME280;9002;42.708;23.186;2024-02-14T04:54:38;94884.09;;;5.68;65.30
8703;BME280;9002;42.708;23.186;2024-02-14T04:57:05;94903.22;;;5.73;64.97
8703;BME280;9002;42.708;23.186;2024-02-14T04:59:32;94896.69;;;5.77;64.58
8703;BME280;9002;42.708;23.186;2024-02-14T05:07:12;94881.69;;;5.49;64.66
8703;BME280;9002;42.708;23.186;2024-02-14T05:09:45;94882.22;;;5.57;65.33
8703;BME280;9002;42.708;23.186;2024-02-14T05:12:16;94824.19;;;5.18;64.37
8703;BME280;9002;42.708;23.186;2024-02-14T05:14:45;94861.78;;;5.37;64.46
8703;BME280;9002;42.708;23.186;2024-02-14T05:30:54;94908.72;;;5.51;64.50
8703;BME280;9002;42.708;23.186;2024-02-14T05:33:21;94906.38;;;5.50;64.61
8703;BME280;9002;42.708;23.186;2024-02-14T05:38:27;94867.50;;;5.08;64.23
8703;BME280;9002;42.708;23.186;2024-02-14T05:41:03;94867.50;;;5.08;64.17
8703;BME280;9002;42.708;23.186;2024-02-14T05:50:36;94926.50;;;5.53;63.71
8703;BME280;9002;42.708;23.186;2024-02-14T05:53:04;94961.72;;;5.77;63.96
8703;BME280;9002;42.708;23.186;2024-02-14T05:55:31;94972.84;;;5.64;63.90
8703;BME280;9002;42.708;23.186;2024-02-14T05:57:59;94972.28;;;5.62;64.04
8703;BME280;9002;42.708;23.186;2024-02-14T06:00:26;94977.06;;;5.59;63.60
8703;BME280;9002;42.708;23.186;2024-02-14T06:02:53;94981.19;;;5.60;65.00
8703;BME280;9002;42.708;23.186;2024-02-14T06:05:20;94980.66;;;5.51;63.75
8703;BME280;9002;42.708;23.186;2024-02-14T06:07:48;94988.47;;;5.63;63.85
8703;BME280;9002;42.708;23.186;2024-02-14T06:10:17;94990.44;;;5.67;62.69
8703;BME280;9002;42.708;23.186;2024-02-14T06:12:44;94977.06;;;5.59;62.26
8703;BME280;9002;42.708;23.186;2024-02-14T06:15:13;94995.16;;;5.70;63.75
8703;BME280;9002;42.708;23.186;2024-02-14T06:17:40;94995.97;;;5.64;62.71
8703;BME280;9002;42.708;23.186;2024-02-14T06:20:08;94998.75;;;5.63;63.08
8703;BME280;9002;42.708;23.186;2024-02-14T06:22:36;95008.88;;;5.58;62.69
8703;BME280;9002;42.708;23.186;2024-02-14T06:25:04;94999.22;;;5.53;63.62
8703;BME280;9002;42.708;23.186;2024-02-14T06:27:34;94998.25;;;5.48;63.22
8703;BME280;9002;42.708;23.186;2024-02-14T06:30:03;95002.41;;;5.49;63.57
8703;BME280;9002;42.708;23.186;2024-02-14T06:32:30;95023.53;;;5.51;61.85
8703;BME280;9002;42.708;23.186;2024-02-14T06:34:58;95016.66;;;5.45;63.17
8703;BME280;9002;42.708;23.186;2024-02-14T06:37:25;95016.50;;;5.39;63.17
8703;BME280;9002;42.708;23.186;2024-02-14T06:39:52;95018.06;;;5.40;63.41
8703;BME280;9002;42.708;23.186;2024-02-14T06:42:20;95016.41;;;5.53;63.38
8703;BME280;9002;42.708;23.186;2024-02-14T06:44:47;95022.53;;;5.58;62.36
8703;BME280;9002;42.708;23.186;2024-02-14T06:47:15;95028.34;;;5.72;61.80
8703;BME280;9002;42.708;23.186;2024-02-14T06:49:42;95016.38;;;5.59;61.33
8703;BME280;9002;42.708;23.186;2024-02-14T06:52:09;95026.44;;;5.67;61.95
8703;BME280;9002;42.708;23.186;2024-02-14T06:54:35;95028.03;;;5.62;62.07
8703;BME280;9002;42.708;23.186;2024-02-14T06:57:03;95028.84;;;5.56;61.95
8703;BME280;9002;42.708;23.186;2024-02-14T06:59:31;95037.34;;;5.56;61.99
8703;BME280;9002;42.708;23.186;2024-02-14T07:01:58;95032.03;;;5.51;63.18
8703;BME280;9002;42.708;23.186;2024-02-14T07:04:26;95021.56;;;5.46;61.32
8703;BME280;9002;42.708;23.186;2024-02-14T07:06:53;95048.00;;;5.60;61.36
8703;BME280;9002;42.708;23.186;2024-02-14T07:09:20;95055.13;;;5.58;61.27
8703;BME280;9002;42.708;23.186;2024-02-14T07:11:47;95049.59;;;5.54;60.45
8703;BME280;9002;42.708;23.186;2024-02-14T07:14:14;95072.34;;;5.51;61.37
8703;BME280;9002;42.708;23.186;2024-02-14T07:16:42;95071.59;;;5.44;61.83
8703;BME280;9002;42.708;23.186;2024-02-14T07:19:09;95068.00;;;5.51;60.64
8703;BME280;9002;42.708;23.186;2024-02-14T07:21:36;95072.75;;;5.48;61.43
8703;BME280;9002;42.708;23.186;2024-02-14T07:24:05;95064.47;;;5.39;61.27
8703;BME280;9002;42.708;23.186;2024-02-14T07:26:32;95064.25;;;5.47;61.21
8703;BME280;9002;42.708;23.186;2024-02-14T07:28:59;95077.63;;;5.62;59.71
8703;BME280;9002;42.708;23.186;2024-02-14T07:31:28;95076.06;;;5.61;60.80
8703;BME280;9002;42.708;23.186;2024-02-14T07:33:58;95079.59;;;5.67;60.35
8703;BME280;9002;42.708;23.186;2024-02-14T07:36:25;95062.44;;;5.54;60.43
8703;BME280;9002;42.708;23.186;2024-02-14T07:38:52;95073.13;;;5.58;59.61
8703;BME280;9002;42.708;23.186;2024-02-14T07:41:19;95075.63;;;5.64;60.84
8703;BME280;9002;42.708;23.186;2024-02-14T07:43:46;95080.56;;;5.66;59.61
8703;BME280;9002;42.708;23.186;2024-02-14T07:46:17;95076.84;;;5.62;59.88
8703;BME280;9002;42.708;23.186;2024-02-14T07:48:44;95079.66;;;5.54;60.32
8703;BME280;9002;42.708;23.186;2024-02-14T07:51:12;95081.78;;;5.57;61.43
8703;BME280;9002;42.708;23.186;2024-02-14T07:53:39;95080.00;;;5.64;59.80
8703;BME280;9002;42.708;23.186;2024-02-14T07:56:06;95095.25;;;5.59;61.31
8703;BME280;9002;42.708;23.186;2024-02-14T07:58:33;95084.84;;;5.40;60.56
8703;BME280;9002;42.708;23.186;2024-02-14T08:01:01;95103.22;;;5.37;61.32
8703;BME280;9002;42.708;23.186;2024-02-14T08:03:29;95090.16;;;5.46;62.43
8703;BME280;9002;42.708;23.186;2024-02-14T08:05:56;95087.19;;;5.49;61.44
8703;BME280;9002;42.708;23.186;2024-02-14T08:08:26;95095.13;;;5.40;60.13
8703;BME280;9002;42.708;23.186;2024-02-14T08:10:53;95065.91;;;5.28;61.53
8703;BME280;9002;42.708;23.186;2024-02-14T08:13:21;95096.53;;;5.30;60.59
8703;BME280;9002;42.708;23.186;2024-02-14T08:15:47;95097.72;;;5.34;60.52
8703;BME280;9002;42.708;23.186;2024-02-14T08:18:15;95071.47;;;5.19;60.86
8703;BME280;9002;42.708;23.186;2024-02-14T08:20:42;95093.78;;;5.31;61.79
8703;BME280;9002;42.708;23.186;2024-02-14T08:23:10;95090.44;;;5.24;61.22
8703;BME280;9002;42.708;23.186;2024-02-14T08:25:45;95105.97;;;5.43;61.91
8703;BME280;9002;42.708;23.186;2024-02-14T08:28:15;95079.34;;;5.30;61.13
8703;BME280;9002;42.708;23.186;2024-02-14T08:30:43;95092.94;;;5.44;60.12
8703;BME280;9002;42.708;23.186;2024-02-14T08:33:10;95100.44;;;5.39;58.97
8703;BME280;9002;42.708;23.186;2024-02-14T08:35:38;95129.88;;;5.43;59.99
8703;BME280;9002;42.708;23.186;2024-02-14T08:38:05;95120.19;;;5.38;60.38
8703;BME280;9002;42.708;23.186;2024-02-14T08:40:33;95094.16;;;5.28;59.68
8703;BME280;9002;42.708;23.186;2024-02-14T08:43:02;95120.19;;;5.38;59.74
8703;BME280;9002;42.708;23.186;2024-02-14T08:45:30;95119.63;;;5.30;59.49
8703;BME280;9002;42.708;23.186;2024-02-14T08:47:56;95130.31;;;5.40;60.34
8703;BME280;9002;42.708;23.186;2024-02-14T08:50:23;95134.81;;;5.38;59.03
8703;BME280;9002;42.708;23.186;2024-02-14T08:52:50;95138.81;;;5.34;59.56
8703;BME280;9002;42.708;23.186;2024-02-14T08:55:17;95132.47;;;5.30;59.79
8703;BME280;9002;42.708;23.186;2024-02-14T08:57:44;95141.16;;;5.42;60.42
8703;BME280;9002;42.708;23.186;2024-02-14T09:00:15;95127.97;;;5.25;59.08
8703;BME280;9002;42.708;23.186;2024-02-14T09:02:45;95139.41;;;5.29;59.76
8703;BME280;9002;42.708;23.186;2024-02-14T09:05:13;95155.00;;;5.34;59.38
8703;BME280;9002;42.708;23.186;2024-02-14T09:07:42;95151.22;;;5.44;60.75
8703;BME280;9002;42.708;23.186;2024-02-14T09:10:09;95140.72;;;5.52;58.56
8703;BME280;9002;42.708;23.186;2024-02-14T09:12:38;95164.44;;;5.47;58.68
8703;BME280;9002;42.708;23.186;2024-02-14T09:15:07;95160.28;;;5.46;59.87
8703;BME280;9002;42.708;23.186;2024-02-14T09:17:35;95159.34;;;5.40;58.94
8703;BME280;9002;42.708;23.186;2024-02-14T09:20:03;95162.28;;;5.51;59.83
8703;BME280;9002;42.708;23.186;2024-02-14T09:22:31;95141.53;;;5.46;59.88
8703;BME280;9002;42.708;23.186;2024-02-14T09:24:59;95161.31;;;5.38;59.45
8703;BME280;9002;42.708;23.186;2024-02-14T09:27:26;95171.19;;;5.35;61.40
8703;BME280;9002;42.708;23.186;2024-02-14T09:30:08;95122.47;;;5.02;61.38
8703;BME280;9002;42.708;23.186;2024-02-14T09:32:45;95116.94;;;4.98;60.91
8703;BME280;9002;42.708;23.186;2024-02-14T09:35:13;95159.94;;;5.43;59.83
8703;BME280;9002;42.708;23.186;2024-02-14T09:37:40;95171.97;;;5.42;61.86
8703;BME280;9002;42.708;23.186;2024-02-14T09:40:19;95165.69;;;5.31;61.39
8703;BME280;9002;42.708;23.186;2024-02-14T09:42:54;95165.66;;;5.38;61.03
8703;BME280;9002;42.708;23.186;2024-02-14T09:45:27;95109.03;;;5.00;58.94
8703;BME280;9002;42.708;23.186;2024-02-14T09:48:00;95110.41;;;5.02;60.01
8703;BME280;9002;42.708;23.186;2024-02-14T09:50:29;95106.69;;;4.98;59.94
8703;BME280;9002;42.708;23.186;2024-02-14T09:52:58;95140.22;;;5.23;60.61
8703;BME280;9002;42.708;23.186;2024-02-14T09:55:25;95169.63;;;5.34;59.59
8703;BME280;9002;42.708;23.186;2024-02-14T09:57:52;95144.94;;;5.33;59.16
8703;BME280;9002;42.708;23.186;2024-02-14T10:00:21;95156.38;;;5.44;59.47
8703;BME280;9002;42.708;23.186;2024-02-14T10:02:49;95152.38;;;5.48;60.02
8703;BME280;9002;42.708;23.186;2024-02-14T10:05:18;95153.59;;;5.45;58.77
8703;BME280;9002;42.708;23.186;2024-02-14T10:07:45;95158.13;;;5.50;57.84
8703;BME280;9002;42.708;23.186;2024-02-14T10:10:12;95098.94;;;5.18;58.02
8703;BME280;9002;42.708;23.186;2024-02-14T10:12:40;95136.41;;;5.39;58.02
8703;BME280;9002;42.708;23.186;2024-02-14T10:15:09;95096.38;;;5.11;59.24
8703;BME280;9002;42.708;23.186;2024-02-14T10:17:38;95104.41;;;5.35;58.72
8703;BME280;9002;42.708;23.186;2024-02-14T10:20:18;95143.88;;;5.54;58.05
8703;BME280;9002;42.708;23.186;2024-02-14T10:23:05;95143.88;;;5.60;58.37
8703;BME280;9002;42.708;23.186;2024-02-14T10:25:55;95085.16;;;5.06;57.40
8703;BME280;9002;42.708;23.186;2024-02-14T10:28:49;95130.88;;;5.49;58.23
8703;BME280;9002;42.708;23.186;2024-02-14T10:31:25;95071.88;;;5.16;57.86
8703;BME280;9002;42.708;23.186;2024-02-14T10:33:52;95107.56;;;5.44;57.72
8703;BME280;9002;42.708;23.186;2024-02-14T10:36:23;95147.16;;;5.74;56.66
8703;BME280;9002;42.708;23.186;2024-02-14T10:38:51;95145.59;;;5.73;56.99
8703;BME280;9002;42.708;23.186;2024-02-14T10:41:18;95143.81;;;5.74;57.52
8703;BME280;9002;42.708;23.186;2024-02-14T10:43:45;95141.78;;;5.82;57.94
8703;BME280;9002;42.708;23.186;2024-02-14T10:46:12;95137.22;;;5.97;56.75
8703;BME280;9002;42.708;23.186;2024-02-14T10:48:42;95152.06;;;5.95;56.08
8703;BME280;9002;42.708;23.186;2024-02-14T10:51:09;95142.75;;;5.88;56.32
8703;BME280;9002;42.708;23.186;2024-02-14T10:53:41;95132.16;;;5.64;56.14
8703;BME280;9002;42.708;23.186;2024-02-14T10:56:12;95139.28;;;5.69;55.88
8703;BME280;9002;42.708;23.186;2024-02-14T10:58:45;95153.47;;;5.78;55.89
8703;BME280;9002;42.708;23.186;2024-02-14T11:01:15;95145.78;;;5.78;56.65
8703;BME280;9002;42.708;23.186;2024-02-14T11:03:43;95154.41;;;5.97;56.21
8703;BME280;9002;42.708;23.186;2024-02-14T11:06:15;95160.19;;;5.86;56.37
8703;BME280;9002;42.708;23.186;2024-02-14T11:08:56;95156.63;;;5.93;55.39
8703;BME280;9002;42.708;23.186;2024-02-14T11:11:24;95156.00;;;5.91;55.70
8703;BME280;9002;42.708;23.186;2024-02-14T11:13:52;95160.53;;;5.89;55.63
8703;BME280;9002;42.708;23.186;2024-02-14T11:18:53;95157.25;;;5.76;56.63
8703;BME280;9002;42.708;23.186;2024-02-14T11:21:20;95148.16;;;5.73;56.55
8703;BME280;9002;42.708;23.186;2024-02-14T11:24:04;95158.03;;;5.76;57.64
8703;BME280;9002;42.708;23.186;2024-02-14T11:26:38;95155.66;;;5.75;56.62
8703;BME280;9002;42.708;23.186;2024-02-14T11:29:05;95147.72;;;5.83;56.56
8703;BME280;9002;42.708;23.186;2024-02-14T11:31:33;95152.84;;;5.83;56.98
8703;BME280;9002;42.708;23.186;2024-02-14T11:34:04;95131.78;;;5.67;56.65
8703;BME280;9002;42.708;23.186;2024-02-14T11:36:32;95144.59;;;5.74;56.40
8703;BME280;9002;42.708;23.186;2024-02-14T11:39:04;95142.97;;;5.86;56.97
8703;BME280;9002;42.708;23.186;2024-02-14T11:41:32;95146.50;;;5.98;56.65
8703;BME280;9002;42.708;23.186;2024-02-14T11:44:01;95134.84;;;5.89;56.89
8703;BME280;9002;42.708;23.186;2024-02-14T11:46:35;95094.69;;;5.50;56.45
8703;BME280;9002;42.708;23.186;2024-02-14T11:49:07;95133.88;;;5.84;56.37
8703;BME280;9002;42.708;23.186;2024-02-14T11:51:35;95102.31;;;5.70;55.24
8703;BME280;9002;42.708;23.186;2024-02-14T11:54:05;95147.31;;;5.92;54.85
8703;BME280;9002;42.708;23.186;2024-02-14T11:56:32;95074.56;;;5.40;56.00
8703;BME280;9002;42.708;23.186;2024-02-14T11:59:07;95153.22;;;5.93;55.78
8703;BME280;9002;42.708;23.186;2024-02-14T12:01:36;95148.91;;;5.93;55.39
8703;BME280;9002;42.708;23.186;2024-02-14T12:04:05;95150.63;;;6.00;55.17
8703;BME280;9002;42.708;23.186;2024-02-14T12:06:34;95138.78;;;5.98;55.40
8703;BME280;9002;42.708;23.186;2024-02-14T12:09:05;95154.19;;;6.05;54.35
8703;BME280;9002;42.708;23.186;2024-02-14T12:11:36;95125.56;;;5.88;55.60
8703;BME280;9002;42.708;23.186;2024-02-14T12:14:05;95137.63;;;5.94;55.67
8703;BME280;9002;42.708;23.186;2024-02-14T12:16:34;95135.84;;;5.88;55.26
8703;BME280;9002;42.708;23.186;2024-02-14T12:19:05;95133.84;;;5.97;56.12
8703;BME280;9002;42.708;23.186;2024-02-14T12:21:34;95142.16;;;5.92;55.32
8703;BME280;9002;42.708;23.186;2024-02-14T12:24:05;95134.44;;;5.92;56.45
8703;BME280;9002;42.708;23.186;2024-02-14T12:26:33;95122.78;;;5.90;56.52
8703;BME280;9002;42.708;23.186;2024-02-14T12:29:01;95137.97;;;6.05;55.31
8703;BME280;9002;42.708;23.186;2024-02-14T12:31:29;95116.44;;;5.92;55.92
8703;BME280;9002;42.708;23.186;2024-02-14T12:33:57;95129.78;;;6.21;55.79
8703;BME280;9002;42.708;23.186;2024-02-14T12:36:25;95125.50;;;6.02;55.91
8703;BME280;9002;42.708;23.186;2024-02-14T12:38:53;95141.31;;;6.05;55.86
8703;BME280;9002;42.708;23.186;2024-02-14T12:41:22;95141.88;;;6.14;56.24
8703;BME280;9002;42.708;23.186;2024-02-14T12:43:52;95126.03;;;6.17;54.68
8703;BME280;9002;42.708;23.186;2024-02-14T12:46:19;95130.91;;;6.25;55.22
8703;BME280;9002;42.708;23.186;2024-02-14T12:48:46;95135.47;;;6.30;54.18
8703;BME280;9002;42.708;23.186;2024-02-14T12:51:13;95134.13;;;6.20;54.44
8703;BME280;9002;42.708;23.186;2024-02-14T12:53:40;95147.09;;;6.32;53.75
8703;BME280;9002;42.708;23.186;2024-02-14T12:56:08;95100.53;;;6.09;53.98
8703;BME280;9002;42.708;23.186;2024-02-14T12:58:36;95135.38;;;6.36;54.37
8703;BME280;9002;42.708;23.186;2024-02-14T13:01:03;95122.19;;;6.26;54.12
8703;BME280;9002;42.708;23.186;2024-02-14T13:03:32;95134.03;;;6.34;54.25
8703;BME280;9002;42.708;23.186;2024-02-14T13:05:59;95135.38;;;6.36;53.65
8703;BME280;9002;42.708;23.186;2024-02-14T13:08:27;95141.50;;;6.42;53.44
8703;BME280;9002;42.708;23.186;2024-02-14T13:10:54;95140.72;;;6.41;54.26
8703;BME280;9002;42.708;23.186;2024-02-14T13:13:22;95129.09;;;6.32;53.58
8703;BME280;9002;42.708;23.186;2024-02-14T13:15:51;95147.84;;;6.39;53.86
8703;BME280;9002;42.708;23.186;2024-02-14T13:18:18;95145.06;;;6.41;53.58
8703;BME280;9002;42.708;23.186;2024-02-14T13:20:45;95152.59;;;6.42;53.20
8703;BME280;9002;42.708;23.186;2024-02-14T13:23:15;95153.69;;;6.53;53.09
8703;BME280;9002;42.708;23.186;2024-02-14T13:25:45;95137.72;;;6.44;52.86
8703;BME280;9002;42.708;23.186;2024-02-14T13:28:12;95157.91;;;6.47;53.01
8703;BME280;9002;42.708;23.186;2024-02-14T13:30:38;95152.91;;;6.52;53.32
8703;BME280;9002;42.708;23.186;2024-02-14T13:33:07;95116.28;;;6.25;53.42
8703;BME280;9002;42.708;23.186;2024-02-14T13:35:35;95151.75;;;6.48;53.52
8703;BME280;9002;42.708;23.186;2024-02-14T13:38:04;95149.66;;;6.64;53.34
8703;BME280;9002;42.708;23.186;2024-02-14T13:40:31;95139.59;;;6.55;53.04
8703;BME280;9002;42.708;23.186;2024-02-14T13:42:58;95163.25;;;6.71;52.38
8703;BME280;9002;42.708;23.186;2024-02-14T13:45:25;95148.00;;;6.76;52.58
8703;BME280;9002;42.708;23.186;2024-02-14T13:48:02;95159.44;;;6.80;52.53
8703;BME280;9002;42.708;23.186;2024-02-14T13:50:36;95156.72;;;6.75;52.53
8703;BME280;9002;42.708;23.186;2024-02-14T13:53:04;95154.84;;;6.82;52.09
8703;BME280;9002;42.708;23.186;2024-02-14T13:55:34;95161.22;;;6.79;52.54
8703;BME280;9002;42.708;23.186;2024-02-14T13:58:01;95156.72;;;6.75;52.19
8703;BME280;9002;42.708;23.186;2024-02-14T14:00:28;95159.06;;;6.76;52.17
8703;BME280;9002;42.708;23.186;2024-02-14T14:02:58;95154.84;;;6.82;51.45
8703;BME280;9002;42.708;23.186;2024-02-14T14:05:25;95107.06;;;6.43;51.71
8703;BME280;9002;42.708;23.186;2024-02-14T14:07:53;95117.09;;;6.51;52.60
8703;BME280;9002;42.708;23.186;2024-02-14T14:10:27;95117.69;;;6.46;52.06
8703;BME280;9002;42.708;23.186;2024-02-14T14:12:54;95150.59;;;6.69;51.52
8703;BME280;9002;42.708;23.186;2024-02-14T14:15:27;95109.28;;;6.39;51.54
8703;BME280;9002;42.708;23.186;2024-02-14T14:17:58;95106.84;;;6.44;52.00
8703;BME280;9002;42.708;23.186;2024-02-14T14:20:26;95139.00;;;6.60;51.84
8703;BME280;9002;42.708;23.186;2024-02-14T14:22:58;95154.94;;;6.75;52.55
8703;BME280;9002;42.708;23.186;2024-02-14T14:25:28;95114.50;;;6.51;52.47
8703;BME280;9002;42.708;23.186;2024-02-14T14:27:57;95117.25;;;6.56;51.46
8703;BME280;9002;42.708;23.186;2024-02-14T14:30:28;95104.38;;;6.31;51.00
8703;BME280;9002;42.708;23.186;2024-02-14T14:32:58;95152.59;;;6.67;50.52
8703;BME280;9002;42.708;23.186;2024-02-14T14:37:54;95177.72;;;6.72;51.80
8703;BME280;9002;42.708;23.186;2024-02-14T14:40:22;95186.75;;;6.81;51.93
8703;BME280;9002;42.708;23.186;2024-02-14T14:42:50;95180.41;;;6.83;50.63
8703;BME280;9002;42.708;23.186;2024-02-14T14:45:18;95181.59;;;6.81;51.64
8703;BME280;9002;42.708;23.186;2024-02-14T14:47:44;95184.72;;;6.90;51.26
8703;BME280;9002;42.708;23.186;2024-02-14T14:50:12;95179.97;;;6.87;50.96
8703;BME280;9002;42.708;23.186;2024-02-14T14:52:39;95177.25;;;6.81;50.34
8703;BME280;9002;42.708;23.186;2024-02-14T14:55:06;95195.56;;;6.92;50.99
8703;BME280;9002;42.708;23.186;2024-02-14T14:57:35;95179.56;;;6.90;50.71
8703;BME280;9002;42.708;23.186;2024-02-14T15:00:07;95194.91;;;7.03;50.62
8703;BME280;9002;42.708;23.186;2024-02-14T15:02:35;95201.69;;;6.97;50.47
8703;BME280;9002;42.708;23.186;2024-02-14T15:05:03;95191.91;;;6.81;50.89
8703;BME280;9002;42.708;23.186;2024-02-14T15:07:30;95181.78;;;6.86;50.92
8703;BME280;9002;42.708;23.186;2024-02-14T15:09:57;95198.09;;;6.98;50.87
8703;BME280;9002;42.708;23.186;2024-02-14T15:12:23;95206.41;;;7.00;50.88
8703;BME280;9002;42.708;23.186;2024-02-14T15:14:53;95197.75;;;6.95;50.46